Suipacha, Argentina
Current Conditions -  °F | °C
As of 3:00 AM on Sunday 21 Dec 2014 (Local Time) from SAEZ Reporting Station
Broken Clouds Broken Clouds  
Wind Chill: 61°   Ceiling: 4500
Heat Index: 61°   Visibility: 6mi
Dew Point: 57°   Wind: 12mph
Humidity: 88%   Direction: 170°S
Pressure: 29.68"   Gusts: NA
Location:  34.75°S, 59.68°W
Report Text: SAEZ 210600Z 17010KT 150V210 9999 SCT010 BKN045 16/14 Q1005
Loading
Personal Weather Stations






























Interactive Weather Map New forecast layout! Learn more

10-Day Weather Forecast

Advertisements
Track Severe Weather on mobile